Miller, Nebraska
Current Conditions -  °F | °C
As of 12:35 AM on Wednesday 26 Nov 2014 (Local Time) from KLXN Reporting Station
Scattered Clouds Scattered Clouds  
Wind Chill: 31°   Ceiling: Unl
Heat Index: 38°   Visibility: 10mi
Dew Point: 28°   Wind: 10mph
Humidity: 67%   Direction: 320°NW
Pressure: 29.95"   Gusts: NA
Location:  40.93°N, 99.39°W
Report Text: KLXN 260635Z AUTO 32009KT 10SM SCT120 04/M02 A2995 RMK AO2 T00351021
Loading
Personal Weather Stations






























Interactive Weather Map New forecast layout! Learn more

10-Day Weather Forecast

Advertisements
Track Severe Weather on mobile